sensor_id;sensor_type;location;lat;lon;timestamp;P1;durP1;ratioP1;P2;durP2;ratioP2
3922;SDS011;1976;51.694;6.256;2023-04-25T00:01:17;8.67;;;4.60;;
3922;SDS011;1976;51.694;6.256;2023-04-25T00:03:43;10.77;;;4.97;;
3922;SDS011;1976;51.694;6.256;2023-04-25T00:06:10;7.70;;;4.80;;
3922;SDS011;1976;51.694;6.256;2023-04-25T00:08:37;13.53;;;5.53;;
3922;SDS011;1976;51.694;6.256;2023-04-25T00:11:03;29.53;;;7.47;;
3922;SDS011;1976;51.694;6.256;2023-04-25T00:13:29;9.10;;;4.00;;
3922;SDS011;1976;51.694;6.256;2023-04-25T00:15:55;13.33;;;4.40;;
3922;SDS011;1976;51.694;6.256;2023-04-25T00:18:21;16.13;;;5.40;;
3922;SDS011;1976;51.694;6.256;2023-04-25T00:20:48;15.47;;;5.53;;
3922;SDS011;1976;51.694;6.256;2023-04-25T00:23:14;21.93;;;6.13;;
3922;SDS011;1976;51.694;6.256;2023-04-25T00:25:46;12.70;;;4.90;;
3922;SDS011;1976;51.694;6.256;2023-04-25T00:28:13;18.10;;;4.43;;
3922;SDS011;1976;51.694;6.256;2023-04-25T00:30:40;19.40;;;5.03;;
3922;SDS011;1976;51.694;6.256;2023-04-25T00:33:06;12.13;;;5.60;;
3922;SDS011;1976;51.694;6.256;2023-04-25T00:35:33;10.47;;;5.83;;
3922;SDS011;1976;51.694;6.256;2023-04-25T00:37:59;31.60;;;8.90;;
3922;SDS011;1976;51.694;6.256;2023-04-25T00:40:25;15.33;;;5.60;;
3922;SDS011;1976;51.694;6.256;2023-04-25T00:42:51;17.43;;;8.73;;
3922;SDS011;1976;51.694;6.256;2023-04-25T00:45:18;16.47;;;7.57;;
3922;SDS011;1976;51.694;6.256;2023-04-25T00:47:44;19.77;;;8.50;;
3922;SDS011;1976;51.694;6.256;2023-04-25T00:50:11;15.13;;;7.23;;
3922;SDS011;1976;51.694;6.256;2023-04-25T00:52:40;8.03;;;4.37;;
3922;SDS011;1976;51.694;6.256;2023-04-25T00:55:07;19.07;;;7.30;;
3922;SDS011;1976;51.694;6.256;2023-04-25T00:57:33;11.70;;;4.80;;
3922;SDS011;1976;51.694;6.256;2023-04-25T00:59:59;8.50;;;4.60;;
3922;SDS011;1976;51.694;6.256;2023-04-25T01:02:25;17.53;;;5.70;;
3922;SDS011;1976;51.694;6.256;2023-04-25T01:04:52;7.40;;;4.60;;
3922;SDS011;1976;51.694;6.256;2023-04-25T01:07:18;10.97;;;4.60;;
3922;SDS011;1976;51.694;6.256;2023-04-25T01:09:45;8.73;;;4.00;;
3922;SDS011;1976;51.694;6.256;2023-04-25T01:12:11;13.40;;;4.93;;
3922;SDS011;1976;51.694;6.256;2023-04-25T01:14:39;16.43;;;4.53;;
3922;SDS011;1976;51.694;6.256;2023-04-25T01:17:05;9.70;;;4.50;;
3922;SDS011;1976;51.694;6.256;2023-04-25T01:19:32;6.00;;;3.73;;
3922;SDS011;1976;51.694;6.256;2023-04-25T01:21:58;11.87;;;4.13;;
3922;SDS011;1976;51.694;6.256;2023-04-25T01:24:24;16.27;;;4.30;;
3922;SDS011;1976;51.694;6.256;2023-04-25T01:26:50;11.20;;;4.00;;
3922;SDS011;1976;51.694;6.256;2023-04-25T01:29:19;11.13;;;3.70;;
3922;SDS011;1976;51.694;6.256;2023-04-25T01:31:46;12.70;;;4.57;;
3922;SDS011;1976;51.694;6.256;2023-04-25T01:34:12;9.20;;;3.97;;
3922;SDS011;1976;51.694;6.256;2023-04-25T01:36:38;14.20;;;4.77;;
3922;SDS011;1976;51.694;6.256;2023-04-25T01:39:05;9.60;;;4.10;;
3922;SDS011;1976;51.694;6.256;2023-04-25T01:41:32;9.97;;;3.43;;
3922;SDS011;1976;51.694;6.256;2023-04-25T01:43:59;10.87;;;4.40;;
3922;SDS011;1976;51.694;6.256;2023-04-25T01:46:25;19.60;;;4.00;;
3922;SDS011;1976;51.694;6.256;2023-04-25T01:48:51;11.83;;;3.73;;
3922;SDS011;1976;51.694;6.256;2023-04-25T01:51:18;9.63;;;4.10;;
3922;SDS011;1976;51.694;6.256;2023-04-25T01:53:44;8.93;;;3.60;;
3922;SDS011;1976;51.694;6.256;2023-04-25T01:56:10;12.67;;;4.37;;
3922;SDS011;1976;51.694;6.256;2023-04-25T01:58:36;6.40;;;4.10;;
3922;SDS011;1976;51.694;6.256;2023-04-25T02:01:02;11.83;;;3.80;;
3922;SDS011;1976;51.694;6.256;2023-04-25T02:03:29;14.13;;;4.93;;
3922;SDS011;1976;51.694;6.256;2023-04-25T02:05:56;11.20;;;4.40;;
3922;SDS011;1976;51.694;6.256;2023-04-25T02:08:22;9.43;;;4.40;;
3922;SDS011;1976;51.694;6.256;2023-04-25T02:10:48;15.30;;;4.70;;
3922;SDS011;1976;51.694;6.256;2023-04-25T02:13:14;23.40;;;5.87;;
3922;SDS011;1976;51.694;6.256;2023-04-25T02:15:40;24.00;;;4.57;;
3922;SDS011;1976;51.694;6.256;2023-04-25T02:18:06;7.60;;;3.50;;
3922;SDS011;1976;51.694;6.256;2023-04-25T02:20:32;4.67;;;3.60;;
3922;SDS011;1976;51.694;6.256;2023-04-25T02:22:58;7.10;;;4.10;;
3922;SDS011;1976;51.694;6.256;2023-04-25T02:25:24;14.40;;;3.47;;
3922;SDS011;1976;51.694;6.256;2023-04-25T02:27:50;10.40;;;4.10;;
3922;SDS011;1976;51.694;6.256;2023-04-25T02:30:17;12.57;;;5.13;;
3922;SDS011;1976;51.694;6.256;2023-04-25T02:32:43;9.77;;;3.70;;
3922;SDS011;1976;51.694;6.256;2023-04-25T02:35:09;14.00;;;4.80;;
3922;SDS011;1976;51.694;6.256;2023-04-25T02:37:36;15.40;;;4.40;;
3922;SDS011;1976;51.694;6.256;2023-04-25T02:40:02;22.73;;;6.17;;
3922;SDS011;1976;51.694;6.256;2023-04-25T02:42:29;9.53;;;4.93;;
3922;SDS011;1976;51.694;6.256;2023-04-25T02:44:55;9.87;;;4.00;;
3922;SDS011;1976;51.694;6.256;2023-04-25T02:47:21;11.00;;;4.17;;
3922;SDS011;1976;51.694;6.256;2023-04-25T02:49:47;10.17;;;3.50;;
3922;SDS011;1976;51.694;6.256;2023-04-25T02:52:14;5.73;;;4.00;;
3922;SDS011;1976;51.694;6.256;2023-04-25T02:54:39;16.40;;;4.87;;
3922;SDS011;1976;51.694;6.256;2023-04-25T02:57:06;18.37;;;4.80;;
3922;SDS011;1976;51.694;6.256;2023-04-25T02:59:32;18.33;;;4.23;;
3922;SDS011;1976;51.694;6.256;2023-04-25T03:01:58;16.10;;;5.67;;
3922;SDS011;1976;51.694;6.256;2023-04-25T03:04:24;43.37;;;6.07;;
3922;SDS011;1976;51.694;6.256;2023-04-25T03:06:50;13.87;;;4.80;;
3922;SDS011;1976;51.694;6.256;2023-04-25T03:09:16;20.27;;;6.87;;
3922;SDS011;1976;51.694;6.256;2023-04-25T03:11:43;7.73;;;4.17;;
3922;SDS011;1976;51.694;6.256;2023-04-25T03:14:09;12.13;;;5.13;;
3922;SDS011;1976;51.694;6.256;2023-04-25T03:16:35;8.67;;;3.80;;
3922;SDS011;1976;51.694;6.256;2023-04-25T03:19:02;11.13;;;4.80;;
3922;SDS011;1976;51.694;6.256;2023-04-25T03:21:28;25.53;;;4.70;;
3922;SDS011;1976;51.694;6.256;2023-04-25T03:23:54;9.23;;;3.10;;
3922;SDS011;1976;51.694;6.256;2023-04-25T03:26:20;9.50;;;5.37;;
3922;SDS011;1976;51.694;6.256;2023-04-25T03:28:46;10.03;;;4.30;;
3922;SDS011;1976;51.694;6.256;2023-04-25T03:31:12;14.27;;;4.70;;
3922;SDS011;1976;51.694;6.256;2023-04-25T03:33:38;8.97;;;4.80;;
3922;SDS011;1976;51.694;6.256;2023-04-25T03:36:04;23.93;;;5.53;;
3922;SDS011;1976;51.694;6.256;2023-04-25T03:38:30;12.67;;;4.73;;
3922;SDS011;1976;51.694;6.256;2023-04-25T03:40:56;11.37;;;4.93;;
3922;SDS011;1976;51.694;6.256;2023-04-25T03:43:22;15.90;;;4.07;;
3922;SDS011;1976;51.694;6.256;2023-04-25T03:45:48;18.17;;;4.80;;
3922;SDS011;1976;51.694;6.256;2023-04-25T03:48:14;12.10;;;5.37;;
3922;SDS011;1976;51.694;6.256;2023-04-25T03:50:40;20.37;;;4.80;;
3922;SDS011;1976;51.694;6.256;2023-04-25T03:53:06;13.27;;;4.50;;
3922;SDS011;1976;51.694;6.256;2023-04-25T03:55:32;25.40;;;5.27;;
3922;SDS011;1976;51.694;6.256;2023-04-25T03:57:58;6.37;;;4.07;;
3922;SDS011;1976;51.694;6.256;2023-04-25T04:00:25;8.87;;;4.20;;
3922;SDS011;1976;51.694;6.256;2023-04-25T04:02:51;11.50;;;4.60;;
3922;SDS011;1976;51.694;6.256;2023-04-25T04:05:17;15.50;;;4.10;;
3922;SDS011;1976;51.694;6.256;2023-04-25T04:07:43;15.03;;;4.40;;
3922;SDS011;1976;51.694;6.256;2023-04-25T04:10:09;19.30;;;4.47;;
3922;SDS011;1976;51.694;6.256;2023-04-25T04:12:36;10.90;;;4.87;;
3922;SDS011;1976;51.694;6.256;2023-04-25T04:15:03;27.93;;;5.17;;
3922;SDS011;1976;51.694;6.256;2023-04-25T04:17:30;13.00;;;4.77;;
3922;SDS011;1976;51.694;6.256;2023-04-25T04:19:57;22.23;;;5.90;;
3922;SDS011;1976;51.694;6.256;2023-04-25T04:22:23;14.73;;;5.40;;
3922;SDS011;1976;51.694;6.256;2023-04-25T04:24:49;18.37;;;5.30;;
3922;SDS011;1976;51.694;6.256;2023-04-25T04:27:16;13.30;;;5.20;;
3922;SDS011;1976;51.694;6.256;2023-04-25T04:29:43;14.20;;;4.50;;
3922;SDS011;1976;51.694;6.256;2023-04-25T04:32:09;24.40;;;5.60;;
3922;SDS011;1976;51.694;6.256;2023-04-25T04:34:35;14.93;;;4.27;;
3922;SDS011;1976;51.694;6.256;2023-04-25T04:37:01;9.83;;;3.80;;
3922;SDS011;1976;51.694;6.256;2023-04-25T04:39:27;21.13;;;4.43;;
3922;SDS011;1976;51.694;6.256;2023-04-25T04:41:53;10.37;;;4.00;;
3922;SDS011;1976;51.694;6.256;2023-04-25T04:44:19;14.10;;;5.33;;
3922;SDS011;1976;51.694;6.256;2023-04-25T04:46:45;16.17;;;5.40;;
3922;SDS011;1976;51.694;6.256;2023-04-25T04:49:12;13.43;;;5.10;;
3922;SDS011;1976;51.694;6.256;2023-04-25T04:51:41;14.53;;;4.30;;
3922;SDS011;1976;51.694;6.256;2023-04-25T04:54:09;28.23;;;5.13;;
3922;SDS011;1976;51.694;6.256;2023-04-25T04:56:34;8.50;;;4.27;;
3922;SDS011;1976;51.694;6.256;2023-04-25T04:59:00;8.23;;;4.17;;
3922;SDS011;1976;51.694;6.256;2023-04-25T05:01:27;21.63;;;4.23;;
3922;SDS011;1976;51.694;6.256;2023-04-25T05:03:56;16.20;;;4.60;;
3922;SDS011;1976;51.694;6.256;2023-04-25T05:06:25;10.70;;;4.73;;
3922;SDS011;1976;51.694;6.256;2023-04-25T05:08:51;18.70;;;4.40;;
3922;SDS011;1976;51.694;6.256;2023-04-25T05:11:18;13.27;;;4.23;;
3922;SDS011;1976;51.694;6.256;2023-04-25T05:13:44;10.93;;;5.20;;
3922;SDS011;1976;51.694;6.256;2023-04-25T05:16:10;12.43;;;4.63;;
3922;SDS011;1976;51.694;6.256;2023-04-25T05:18:37;15.70;;;5.23;;
3922;SDS011;1976;51.694;6.256;2023-04-25T05:21:03;15.07;;;4.80;;
3922;SDS011;1976;51.694;6.256;2023-04-25T05:23:28;17.90;;;5.40;;
3922;SDS011;1976;51.694;6.256;2023-04-25T05:25:55;8.57;;;4.60;;
3922;SDS011;1976;51.694;6.256;2023-04-25T05:28:21;10.03;;;4.63;;
3922;SDS011;1976;51.694;6.256;2023-04-25T05:30:47;17.63;;;5.40;;
3922;SDS011;1976;51.694;6.256;2023-04-25T05:33:13;21.03;;;6.10;;
3922;SDS011;1976;51.694;6.256;2023-04-25T05:35:38;29.07;;;4.40;;
3922;SDS011;1976;51.694;6.256;2023-04-25T05:38:05;16.50;;;4.00;;
3922;SDS011;1976;51.694;6.256;2023-04-25T05:40:31;13.30;;;4.60;;
3922;SDS011;1976;51.694;6.256;2023-04-25T05:42:57;20.97;;;4.20;;
3922;SDS011;1976;51.694;6.256;2023-04-25T05:45:23;20.03;;;5.23;;
3922;SDS011;1976;51.694;6.256;2023-04-25T05:47:49;14.50;;;4.20;;
3922;SDS011;1976;51.694;6.256;2023-04-25T05:50:15;12.40;;;4.20;;
3922;SDS011;1976;51.694;6.256;2023-04-25T05:52:41;18.47;;;4.90;;
3922;SDS011;1976;51.694;6.256;2023-04-25T05:55:07;20.53;;;4.30;;
3922;SDS011;1976;51.694;6.256;2023-04-25T05:57:33;23.67;;;4.93;;
3922;SDS011;1976;51.694;6.256;2023-04-25T05:59:59;14.10;;;3.97;;
3922;SDS011;1976;51.694;6.256;2023-04-25T06:02:25;16.63;;;4.83;;
3922;SDS011;1976;51.694;6.256;2023-04-25T06:04:51;26.00;;;4.00;;
3922;SDS011;1976;51.694;6.256;2023-04-25T06:07:18;19.53;;;4.87;;
3922;SDS011;1976;51.694;6.256;2023-04-25T06:09:44;9.90;;;4.70;;
3922;SDS011;1976;51.694;6.256;2023-04-25T06:12:11;9.33;;;4.80;;
3922;SDS011;1976;51.694;6.256;2023-04-25T06:14:37;12.90;;;4.27;;
3922;SDS011;1976;51.694;6.256;2023-04-25T06:17:02;14.93;;;5.00;;
3922;SDS011;1976;51.694;6.256;2023-04-25T06:19:35;11.43;;;4.50;;
3922;SDS011;1976;51.694;6.256;2023-04-25T06:22:01;12.87;;;5.07;;
3922;SDS011;1976;51.694;6.256;2023-04-25T06:24:28;22.63;;;4.80;;
3922;SDS011;1976;51.694;6.256;2023-04-25T06:26:54;14.03;;;4.40;;
3922;SDS011;1976;51.694;6.256;2023-04-25T06:29:20;10.90;;;4.40;;
3922;SDS011;1976;51.694;6.256;2023-04-25T06:31:46;22.90;;;4.93;;
3922;SDS011;1976;51.694;6.256;2023-04-25T06:34:12;8.50;;;4.10;;
3922;SDS011;1976;51.694;6.256;2023-04-25T06:36:37;14.17;;;4.20;;
3922;SDS011;1976;51.694;6.256;2023-04-25T06:39:03;14.37;;;4.33;;
3922;SDS011;1976;51.694;6.256;2023-04-25T06:41:29;21.60;;;4.43;;
3922;SDS011;1976;51.694;6.256;2023-04-25T06:43:55;18.50;;;4.20;;
3922;SDS011;1976;51.694;6.256;2023-04-25T06:46:21;8.00;;;3.60;;
3922;SDS011;1976;51.694;6.256;2023-04-25T06:48:47;7.20;;;3.97;;
3922;SDS011;1976;51.694;6.256;2023-04-25T06:51:13;17.23;;;4.10;;
3922;SDS011;1976;51.694;6.256;2023-04-25T06:53:39;16.67;;;4.53;;
3922;SDS011;1976;51.694;6.256;2023-04-25T06:56:05;14.70;;;4.07;;
3922;SDS011;1976;51.694;6.256;2023-04-25T06:58:31;16.10;;;4.53;;
3922;SDS011;1976;51.694;6.256;2023-04-25T07:00:57;6.80;;;3.97;;
3922;SDS011;1976;51.694;6.256;2023-04-25T07:03:22;8.17;;;3.80;;
3922;SDS011;1976;51.694;6.256;2023-04-25T07:05:49;16.67;;;4.60;;
3922;SDS011;1976;51.694;6.256;2023-04-25T07:08:15;7.43;;;2.93;;
3922;SDS011;1976;51.694;6.256;2023-04-25T07:10:41;8.63;;;3.10;;
3922;SDS011;1976;51.694;6.256;2023-04-25T07:13:07;9.37;;;3.40;;
3922;SDS011;1976;51.694;6.256;2023-04-25T07:15:33;17.60;;;3.73;;
3922;SDS011;1976;51.694;6.256;2023-04-25T07:17:59;12.20;;;3.23;;
3922;SDS011;1976;51.694;6.256;2023-04-25T07:20:25;7.50;;;3.23;;
3922;SDS011;1976;51.694;6.256;2023-04-25T07:22:52;5.50;;;3.10;;
3922;SDS011;1976;51.694;6.256;2023-04-25T07:25:19;10.13;;;3.20;;
3922;SDS011;1976;51.694;6.256;2023-04-25T07:27:45;5.07;;;2.77;;
3922;SDS011;1976;51.694;6.256;2023-04-25T07:30:11;7.70;;;3.23;;
3922;SDS011;1976;51.694;6.256;2023-04-25T07:32:37;14.87;;;2.57;;
3922;SDS011;1976;51.694;6.256;2023-04-25T07:35:04;10.27;;;2.40;;
3922;SDS011;1976;51.694;6.256;2023-04-25T07:37:31;6.63;;;2.60;;
3922;SDS011;1976;51.694;6.256;2023-04-25T07:39:58;6.90;;;2.50;;
3922;SDS011;1976;51.694;6.256;2023-04-25T07:42:24;9.20;;;4.00;;
3922;SDS011;1976;51.694;6.256;2023-04-25T07:44:49;6.17;;;2.43;;
3922;SDS011;1976;51.694;6.256;2023-04-25T07:47:16;9.63;;;2.57;;
3922;SDS011;1976;51.694;6.256;2023-04-25T07:49:44;10.13;;;2.20;;
3922;SDS011;1976;51.694;6.256;2023-04-25T07:52:10;13.73;;;2.70;;
3922;SDS011;1976;51.694;6.256;2023-04-25T07:54:36;5.53;;;2.07;;
3922;SDS011;1976;51.694;6.256;2023-04-25T07:57:02;6.30;;;2.00;;
3922;SDS011;1976;51.694;6.256;2023-04-25T07:59:28;18.80;;;2.97;;
3922;SDS011;1976;51.694;6.256;2023-04-25T08:01:53;5.93;;;2.17;;
3922;SDS011;1976;51.694;6.256;2023-04-25T08:04:20;10.57;;;2.73;;
3922;SDS011;1976;51.694;6.256;2023-04-25T08:06:45;8.53;;;1.80;;
3922;SDS011;1976;51.694;6.256;2023-04-25T08:09:12;7.87;;;1.90;;
3922;SDS011;1976;51.694;6.256;2023-04-25T08:11:38;11.33;;;2.50;;
3922;SDS011;1976;51.694;6.256;2023-04-25T08:14:04;7.03;;;1.40;;
3922;SDS011;1976;51.694;6.256;2023-04-25T08:16:30;3.40;;;1.93;;
3922;SDS011;1976;51.694;6.256;2023-04-25T08:18:56;9.77;;;2.60;;
3922;SDS011;1976;51.694;6.256;2023-04-25T08:21:21;5.33;;;1.83;;
3922;SDS011;1976;51.694;6.256;2023-04-25T08:23:47;20.40;;;2.80;;
3922;SDS011;1976;51.694;6.256;2023-04-25T08:26:13;16.03;;;2.60;;
3922;SDS011;1976;51.694;6.256;2023-04-25T08:28:38;12.30;;;2.30;;
3922;SDS011;1976;51.694;6.256;2023-04-25T08:31:05;16.07;;;2.27;;
3922;SDS011;1976;51.694;6.256;2023-04-25T08:33:31;10.20;;;2.47;;
3922;SDS011;1976;51.694;6.256;2023-04-25T08:35:57;12.23;;;2.20;;
3922;SDS011;1976;51.694;6.256;2023-04-25T08:38:24;15.00;;;2.47;;
3922;SDS011;1976;51.694;6.256;2023-04-25T08:40:50;9.83;;;2.10;;
3922;SDS011;1976;51.694;6.256;2023-04-25T08:43:17;9.00;;;2.07;;
3922;SDS011;1976;51.694;6.256;2023-04-25T08:45:44;9.03;;;3.40;;
3922;SDS011;1976;51.694;6.256;2023-04-25T08:48:11;11.13;;;2.47;;
3922;SDS011;1976;51.694;6.256;2023-04-25T08:50:50;11.27;;;2.10;;
3922;SDS011;1976;51.694;6.256;2023-04-25T08:53:27;9.50;;;2.60;;
3922;SDS011;1976;51.694;6.256;2023-04-25T08:55:54;14.73;;;3.07;;
3922;SDS011;1976;51.694;6.256;2023-04-25T08:58:21;10.63;;;1.77;;
3922;SDS011;1976;51.694;6.256;2023-04-25T09:00:47;4.53;;;1.60;;
3922;SDS011;1976;51.694;6.256;2023-04-25T09:03:14;12.67;;;2.20;;
3922;SDS011;1976;51.694;6.256;2023-04-25T09:05:40;6.80;;;2.23;;
3922;SDS011;1976;51.694;6.256;2023-04-25T09:08:06;3.83;;;1.83;;
3922;SDS011;1976;51.694;6.256;2023-04-25T09:10:33;7.90;;;2.30;;
3922;SDS011;1976;51.694;6.256;2023-04-25T09:13:06;6.10;;;1.97;;
3922;SDS011;1976;51.694;6.256;2023-04-25T09:15:34;14.03;;;2.27;;
3922;SDS011;1976;51.694;6.256;2023-04-25T09:18:22;8.93;;;2.37;;
3922;SDS011;1976;51.694;6.256;2023-04-25T09:20:50;5.20;;;2.00;;
3922;SDS011;1976;51.694;6.256;2023-04-25T09:23:16;6.60;;;2.00;;
3922;SDS011;1976;51.694;6.256;2023-04-25T09:25:46;6.40;;;1.80;;
3922;SDS011;1976;51.694;6.256;2023-04-25T09:28:16;9.30;;;2.53;;
3922;SDS011;1976;51.694;6.256;2023-04-25T09:30:47;4.83;;;1.93;;
3922;SDS011;1976;51.694;6.256;2023-04-25T09:33:13;4.00;;;2.00;;
3922;SDS011;1976;51.694;6.256;2023-04-25T09:35:40;6.00;;;2.07;;
3922;SDS011;1976;51.694;6.256;2023-04-25T09:38:07;9.80;;;2.53;;
3922;SDS011;1976;51.694;6.256;2023-04-25T09:40:38;6.07;;;2.03;;
3922;SDS011;1976;51.694;6.256;2023-04-25T09:43:08;7.43;;;2.20;;
3922;SDS011;1976;51.694;6.256;2023-04-25T09:45:47;4.90;;;1.90;;
3922;SDS011;1976;51.694;6.256;2023-04-25T09:48:20;3.50;;;1.40;;
3922;SDS011;1976;51.694;6.256;2023-04-25T09:53:42;15.83;;;2.43;;
3922;SDS011;1976;51.694;6.256;2023-04-25T09:56:10;8.90;;;1.70;;
3922;SDS011;1976;51.694;6.256;2023-04-25T09:58:37;9.53;;;2.47;;
3922;SDS011;1976;51.694;6.256;2023-04-25T10:01:06;7.33;;;2.17;;
3922;SDS011;1976;51.694;6.256;2023-04-25T10:03:34;5.47;;;2.10;;
3922;SDS011;1976;51.694;6.256;2023-04-25T10:06:02;5.97;;;2.10;;
3922;SDS011;1976;51.694;6.256;2023-04-25T10:08:34;2.53;;;1.70;;
3922;SDS011;1976;51.694;6.256;2023-04-25T10:11:02;4.60;;;1.77;;
3922;SDS011;1976;51.694;6.256;2023-04-25T10:13:29;7.20;;;1.53;;
3922;SDS011;1976;51.694;6.256;2023-04-25T10:16:00;8.13;;;2.00;;
3922;SDS011;1976;51.694;6.256;2023-04-25T10:18:27;8.63;;;1.73;;
3922;SDS011;1976;51.694;6.256;2023-04-25T10:20:56;10.03;;;3.70;;
3922;SDS011;1976;51.694;6.256;2023-04-25T10:23:22;32.33;;;15.40;;
3922;SDS011;1976;51.694;6.256;2023-04-25T10:25:49;19.87;;;11.87;;
3922;SDS011;1976;51.694;6.256;2023-04-25T10:28:15;33.97;;;14.63;;
3922;SDS011;1976;51.694;6.256;2023-04-25T10:33:29;33.30;;;8.47;;
3922;SDS011;1976;51.694;6.256;2023-04-25T10:35:58;5.30;;;2.90;;
3922;SDS011;1976;51.694;6.256;2023-04-25T10:38:24;14.13;;;3.20;;
3922;SDS011;1976;51.694;6.256;2023-04-25T10:41:04;6.07;;;2.20;;
3922;SDS011;1976;51.694;6.256;2023-04-25T10:45:57;6.63;;;2.07;;
3922;SDS011;1976;51.694;6.256;2023-04-25T10:48:28;6.50;;;1.97;;
3922;SDS011;1976;51.694;6.256;2023-04-25T10:54:01;14.50;;;1.90;;
3922;SDS011;1976;51.694;6.256;2023-04-25T16:37:07;5.40;;;1.77;;
3922;SDS011;1976;51.694;6.256;2023-04-25T16:43:36;2.90;;;1.47;;
3922;SDS011;1976;51.694;6.256;2023-04-25T16:47:03;6.67;;;1.67;;
3922;SDS011;1976;51.694;6.256;2023-04-25T16:50:29;7.63;;;2.00;;
3922;SDS011;1976;51.694;6.256;2023-04-25T16:53:36;7.00;;;1.80;;
3922;SDS011;1976;51.694;6.256;2023-04-25T17:00:19;6.93;;;1.63;;
3922;SDS011;1976;51.694;6.256;2023-04-25T19:06:13;8.57;;;2.43;;
3922;SDS011;1976;51.694;6.256;2023-04-25T19:08:39;4.13;;;2.07;;
3922;SDS011;1976;51.694;6.256;2023-04-25T19:11:05;9.03;;;1.90;;
3922;SDS011;1976;51.694;6.256;2023-04-25T19:13:32;9.07;;;2.20;;
3922;SDS011;1976;51.694;6.256;2023-04-25T19:15:59;4.33;;;3.00;;
3922;SDS011;1976;51.694;6.256;2023-04-25T19:18:25;8.60;;;2.23;;
3922;SDS011;1976;51.694;6.256;2023-04-25T19:20:51;6.43;;;1.83;;
3922;SDS011;1976;51.694;6.256;2023-04-25T19:23:17;2.70;;;1.43;;
3922;SDS011;1976;51.694;6.256;2023-04-25T19:25:43;15.67;;;2.37;;
3922;SDS011;1976;51.694;6.256;2023-04-25T19:28:10;3.37;;;1.70;;
3922;SDS011;1976;51.694;6.256;2023-04-25T19:30:37;2.53;;;1.60;;
3922;SDS011;1976;51.694;6.256;2023-04-25T19:33:03;5.03;;;1.67;;
3922;SDS011;1976;51.694;6.256;2023-04-25T19:35:29;4.57;;;1.90;;
3922;SDS011;1976;51.694;6.256;2023-04-25T19:37:57;2.07;;;1.57;;
3922;SDS011;1976;51.694;6.256;2023-04-25T19:40:23;4.63;;;1.87;;
3922;SDS011;1976;51.694;6.256;2023-04-25T19:42:50;4.70;;;1.83;;
3922;SDS011;1976;51.694;6.256;2023-04-25T19:45:16;3.63;;;1.93;;
3922;SDS011;1976;51.694;6.256;2023-04-25T19:47:42;3.80;;;1.70;;
3922;SDS011;1976;51.694;6.256;2023-04-25T19:50:09;6.03;;;2.10;;
3922;SDS011;1976;51.694;6.256;2023-04-25T19:52:35;5.13;;;2.33;;
3922;SDS011;1976;51.694;6.256;2023-04-25T19:55:01;11.00;;;2.90;;
3922;SDS011;1976;51.694;6.256;2023-04-25T19:57:29;8.93;;;3.03;;
3922;SDS011;1976;51.694;6.256;2023-04-25T20:00:01;5.63;;;2.13;;
3922;SDS011;1976;51.694;6.256;2023-04-25T20:02:28;3.87;;;2.37;;
3922;SDS011;1976;51.694;6.256;2023-04-25T20:04:54;7.20;;;2.43;;
3922;SDS011;1976;51.694;6.256;2023-04-25T20:07:21;13.40;;;2.30;;
3922;SDS011;1976;51.694;6.256;2023-04-25T20:09:47;8.20;;;2.63;;
3922;SDS011;1976;51.694;6.256;2023-04-25T20:12:14;10.23;;;2.47;;
3922;SDS011;1976;51.694;6.256;2023-04-25T20:14:40;3.67;;;2.03;;
3922;SDS011;1976;51.694;6.256;2023-04-25T20:17:07;9.20;;;2.20;;
3922;SDS011;1976;51.694;6.256;2023-04-25T20:19:35;6.07;;;2.50;;
3922;SDS011;1976;51.694;6.256;2023-04-25T20:22:01;9.60;;;2.20;;
3922;SDS011;1976;51.694;6.256;2023-04-25T20:24:27;13.10;;;3.33;;
3922;SDS011;1976;51.694;6.256;2023-04-25T20:26:53;6.77;;;2.60;;
3922;SDS011;1976;51.694;6.256;2023-04-25T20:29:20;2.30;;;1.77;;
3922;SDS011;1976;51.694;6.256;2023-04-25T20:31:47;3.60;;;2.40;;
3922;SDS011;1976;51.694;6.256;2023-04-25T20:34:15;5.20;;;2.57;;
3922;SDS011;1976;51.694;6.256;2023-04-25T20:36:41;3.27;;;2.57;;
3922;SDS011;1976;51.694;6.256;2023-04-25T20:39:06;9.17;;;2.17;;
3922;SDS011;1976;51.694;6.256;2023-04-25T20:41:32;7.93;;;2.53;;
3922;SDS011;1976;51.694;6.256;2023-04-25T20:43:59;4.10;;;2.43;;
3922;SDS011;1976;51.694;6.256;2023-04-25T20:46:27;7.23;;;2.90;;
3922;SDS011;1976;51.694;6.256;2023-04-25T20:48:53;3.50;;;2.50;;
3922;SDS011;1976;51.694;6.256;2023-04-25T20:51:19;10.97;;;2.90;;
3922;SDS011;1976;51.694;6.256;2023-04-25T20:53:45;7.47;;;2.27;;
3922;SDS011;1976;51.694;6.256;2023-04-25T20:56:11;10.00;;;2.40;;
3922;SDS011;1976;51.694;6.256;2023-04-25T20:58:38;5.23;;;2.73;;
3922;SDS011;1976;51.694;6.256;2023-04-25T21:01:04;14.93;;;2.40;;
3922;SDS011;1976;51.694;6.256;2023-04-25T21:03:30;6.50;;;2.40;;
3922;SDS011;1976;51.694;6.256;2023-04-25T21:05:57;10.03;;;2.57;;
3922;SDS011;1976;51.694;6.256;2023-04-25T21:08:23;4.07;;;2.53;;
3922;SDS011;1976;51.694;6.256;2023-04-25T21:10:49;3.20;;;2.53;;
3922;SDS011;1976;51.694;6.256;2023-04-25T21:13:16;3.20;;;2.33;;
3922;SDS011;1976;51.694;6.256;2023-04-25T21:15:42;5.83;;;2.27;;
3922;SDS011;1976;51.694;6.256;2023-04-25T21:18:08;7.80;;;2.80;;
3922;SDS011;1976;51.694;6.256;2023-04-25T21:20:34;4.63;;;2.37;;
3922;SDS011;1976;51.694;6.256;2023-04-25T21:23:00;10.40;;;3.13;;
3922;SDS011;1976;51.694;6.256;2023-04-25T21:25:26;3.20;;;2.03;;
3922;SDS011;1976;51.694;6.256;2023-04-25T21:27:55;12.40;;;2.60;;
3922;SDS011;1976;51.694;6.256;2023-04-25T21:30:22;5.37;;;3.07;;
3922;SDS011;1976;51.694;6.256;2023-04-25T21:32:50;9.53;;;3.53;;
3922;SDS011;1976;51.694;6.256;2023-04-25T21:35:16;8.30;;;2.77;;
3922;SDS011;1976;51.694;6.256;2023-04-25T21:37:43;11.13;;;2.60;;
3922;SDS011;1976;51.694;6.256;2023-04-25T21:40:09;3.07;;;2.13;;
3922;SDS011;1976;51.694;6.256;2023-04-25T21:42:35;8.37;;;3.03;;
3922;SDS011;1976;51.694;6.256;2023-04-25T21:45:02;7.33;;;3.00;;
3922;SDS011;1976;51.694;6.256;2023-04-25T21:47:29;5.70;;;2.57;;
3922;SDS011;1976;51.694;6.256;2023-04-25T21:49:55;7.37;;;2.67;;
3922;SDS011;1976;51.694;6.256;2023-04-25T21:52:20;9.47;;;3.00;;
3922;SDS011;1976;51.694;6.256;2023-04-25T21:54:47;8.97;;;3.20;;
3922;SDS011;1976;51.694;6.256;2023-04-25T21:57:14;3.70;;;2.33;;
3922;SDS011;1976;51.694;6.256;2023-04-25T21:59:40;2.70;;;2.17;;
3922;SDS011;1976;51.694;6.256;2023-04-25T22:02:05;8.17;;;3.13;;
3922;SDS011;1976;51.694;6.256;2023-04-25T22:04:31;6.63;;;2.77;;
3922;SDS011;1976;51.694;6.256;2023-04-25T22:06:57;8.63;;;3.00;;
3922;SDS011;1976;51.694;6.256;2023-04-25T22:09:23;8.73;;;3.27;;
3922;SDS011;1976;51.694;6.256;2023-04-25T22:11:49;5.90;;;2.73;;
3922;SDS011;1976;51.694;6.256;2023-04-25T22:14:17;6.63;;;3.13;;
3922;SDS011;1976;51.694;6.256;2023-04-25T22:16:43;6.30;;;3.07;;
3922;SDS011;1976;51.694;6.256;2023-04-25T22:19:09;5.43;;;2.90;;
3922;SDS011;1976;51.694;6.256;2023-04-25T22:21:35;4.80;;;2.90;;
3922;SDS011;1976;51.694;6.256;2023-04-25T22:24:01;8.33;;;2.60;;
3922;SDS011;1976;51.694;6.256;2023-04-25T22:26:29;6.23;;;3.07;;
3922;SDS011;1976;51.694;6.256;2023-04-25T22:28:55;9.00;;;2.87;;
3922;SDS011;1976;51.694;6.256;2023-04-25T22:31:20;8.60;;;3.47;;
3922;SDS011;1976;51.694;6.256;2023-04-25T22:33:46;14.20;;;3.20;;
3922;SDS011;1976;51.694;6.256;2023-04-25T22:36:12;6.20;;;3.67;;
3922;SDS011;1976;51.694;6.256;2023-04-25T22:38:39;11.80;;;3.13;;
3922;SDS011;1976;51.694;6.256;2023-04-25T22:41:05;7.33;;;3.60;;
3922;SDS011;1976;51.694;6.256;2023-04-25T22:43:33;4.83;;;3.13;;
3922;SDS011;1976;51.694;6.256;2023-04-25T22:45:59;12.40;;;3.33;;
3922;SDS011;1976;51.694;6.256;2023-04-25T22:48:26;8.17;;;3.23;;
3922;SDS011;1976;51.694;6.256;2023-04-25T22:51:01;5.57;;;2.83;;
3922;SDS011;1976;51.694;6.256;2023-04-25T22:53:28;5.70;;;2.83;;
3922;SDS011;1976;51.694;6.256;2023-04-25T22:55:56;4.60;;;2.70;;
3922;SDS011;1976;51.694;6.256;2023-04-25T22:58:22;9.97;;;3.00;;
3922;SDS011;1976;51.694;6.256;2023-04-25T23:00:48;8.00;;;4.10;;
3922;SDS011;1976;51.694;6.256;2023-04-25T23:03:17;8.77;;;3.83;;
3922;SDS011;1976;51.694;6.256;2023-04-25T23:05:44;12.33;;;3.53;;
3922;SDS011;1976;51.694;6.256;2023-04-25T23:08:10;19.13;;;2.63;;
3922;SDS011;1976;51.694;6.256;2023-04-25T23:10:37;15.07;;;3.70;;